sensor_id;sensor_type;location;lat;lon;timestamp;pressure;altitude;pressure_sealevel;temperature;humidity
30873;BME280;17579;42.690;2.586;2022-11-18T00:00:31;96156.22;;;14.03;51.96
30873;BME280;17579;42.690;2.586;2022-11-18T00:02:56;96151.72;;;14.03;51.84
30873;BME280;17579;42.690;2.586;2022-11-18T00:05:22;96140.91;;;14.05;51.54
30873;BME280;17579;42.690;2.586;2022-11-18T00:07:47;96139.06;;;14.06;51.40
30873;BME280;17579;42.690;2.586;2022-11-18T00:10:13;96135.41;;;14.07;51.36
30873;BME280;17579;42.690;2.586;2022-11-18T00:12:38;96134.38;;;14.08;51.59
30873;BME280;17579;42.690;2.586;2022-11-18T00:15:16;96139.88;;;14.06;52.04
30873;BME280;17579;42.690;2.586;2022-11-18T00:17:41;96134.75;;;14.04;51.58
30873;BME280;17579;42.690;2.586;2022-11-18T00:20:07;96147.25;;;14.04;51.43
30873;BME280;17579;42.690;2.586;2022-11-18T00:22:33;96143.56;;;14.05;51.46
30873;BME280;17579;42.690;2.586;2022-11-18T00:24:58;96134.75;;;14.04;51.97
30873;BME280;17579;42.690;2.586;2022-11-18T00:27:24;96132.94;;;14.05;51.63
30873;BME280;17579;42.690;2.586;2022-11-18T00:29:49;96112.03;;;14.02;51.94
30873;BME280;17579;42.690;2.586;2022-11-18T00:32:15;96099.97;;;13.99;51.86
30873;BME280;17579;42.690;2.586;2022-11-18T00:34:40;96098.53;;;13.97;51.54
30873;BME280;17579;42.690;2.586;2022-11-18T00:37:06;96109.78;;;13.99;51.69
30873;BME280;17579;42.690;2.586;2022-11-18T00:39:32;96117.13;;;13.97;51.85
30873;BME280;17579;42.690;2.586;2022-11-18T00:41:57;96125.31;;;13.95;51.68
30873;BME280;17579;42.690;2.586;2022-11-18T00:44:35;96130.81;;;13.94;52.28
30873;BME280;17579;42.690;2.586;2022-11-18T00:47:01;96134.69;;;13.91;52.45
30873;BME280;17579;42.690;2.586;2022-11-18T00:49:27;96138.94;;;13.85;52.65
30873;BME280;17579;42.690;2.586;2022-11-18T00:51:52;96152.81;;;13.81;52.78
30873;BME280;17579;42.690;2.586;2022-11-18T00:54:19;96144.56;;;13.76;53.25
30873;BME280;17579;42.690;2.586;2022-11-18T00:56:44;96160.09;;;13.72;53.51
30873;BME280;17579;42.690;2.586;2022-11-18T00:59:10;96167.22;;;13.72;53.41
30873;BME280;17579;42.690;2.586;2022-11-18T01:01:35;96157.38;;;13.65;53.65
30873;BME280;17579;42.690;2.586;2022-11-18T01:04:01;96177.81;;;13.65;53.29
30873;BME280;17579;42.690;2.586;2022-11-18T01:06:27;96179.53;;;13.51;53.89
30873;BME280;17579;42.690;2.586;2022-11-18T01:08:52;96193.63;;;13.51;53.58
30873;BME280;17579;42.690;2.586;2022-11-18T01:11:18;96199.00;;;13.58;53.41
30873;BME280;17579;42.690;2.586;2022-11-18T01:13:55;96172.25;;;13.60;52.70
30873;BME280;17579;42.690;2.586;2022-11-18T01:16:23;96200.00;;;13.57;53.11
30873;BME280;17579;42.690;2.586;2022-11-18T01:18:49;96199.63;;;13.60;52.88
30873;BME280;17579;42.690;2.586;2022-11-18T01:21:15;96201.47;;;13.60;52.42
30873;BME280;17579;42.690;2.586;2022-11-18T01:23:41;96198.00;;;13.59;52.89
30873;BME280;17579;42.690;2.586;2022-11-18T01:26:10;96193.88;;;13.57;52.66
30873;BME280;17579;42.690;2.586;2022-11-18T01:28:35;96192.88;;;13.58;52.51
30873;BME280;17579;42.690;2.586;2022-11-18T01:31:06;96181.78;;;13.54;52.68
30873;BME280;17579;42.690;2.586;2022-11-18T01:33:33;96186.28;;;13.54;52.91
30873;BME280;17579;42.690;2.586;2022-11-18T01:35:58;96193.41;;;13.53;52.85
30873;BME280;17579;42.690;2.586;2022-11-18T01:38:24;96210.44;;;13.59;52.85
30873;BME280;17579;42.690;2.586;2022-11-18T01:40:50;96213.09;;;13.59;52.86
30873;BME280;17579;42.690;2.586;2022-11-18T01:43:18;96225.38;;;13.60;53.02
30873;BME280;17579;42.690;2.586;2022-11-18T01:45:49;96228.84;;;13.60;52.92
30873;BME280;17579;42.690;2.586;2022-11-18T01:48:28;96229.63;;;13.54;52.77
30873;BME280;17579;42.690;2.586;2022-11-18T01:51:15;96230.25;;;13.56;52.88
30873;BME280;17579;42.690;2.586;2022-11-18T01:53:49;96229.03;;;13.59;52.63
30873;BME280;17579;42.690;2.586;2022-11-18T01:56:21;96236.19;;;13.58;52.30
30873;BME280;17579;42.690;2.586;2022-11-18T01:59:01;96249.03;;;13.55;52.51
30873;BME280;17579;42.690;2.586;2022-11-18T02:01:27;96251.94;;;13.60;52.19
30873;BME280;17579;42.690;2.586;2022-11-18T02:03:54;96257.06;;;13.61;52.11
30873;BME280;17579;42.690;2.586;2022-11-18T02:06:20;96254.69;;;13.66;52.21
30873;BME280;17579;42.690;2.586;2022-11-18T02:08:46;96264.53;;;13.73;52.09
30873;BME280;17579;42.690;2.586;2022-11-18T02:11:14;96276.81;;;13.74;51.77
30873;BME280;17579;42.690;2.586;2022-11-18T02:13:52;96276.25;;;13.78;51.97
30873;BME280;17579;42.690;2.586;2022-11-18T02:16:22;96276.25;;;13.78;52.30
30873;BME280;17579;42.690;2.586;2022-11-18T02:18:59;96279.72;;;13.79;52.46
30873;BME280;17579;42.690;2.586;2022-11-18T02:24:37;96291.19;;;13.79;52.51
30873;BME280;17579;42.690;2.586;2022-11-18T02:30:10;96299.88;;;13.88;52.88
30873;BME280;17579;42.690;2.586;2022-11-18T02:33:03;96299.41;;;13.84;52.77
30873;BME280;17579;42.690;2.586;2022-11-18T02:35:46;96306.66;;;13.91;52.99
30873;BME280;17579;42.690;2.586;2022-11-18T02:38:38;96304.81;;;13.91;52.83
30873;BME280;17579;42.690;2.586;2022-11-18T02:41:13;96301.13;;;13.92;52.39
30873;BME280;17579;42.690;2.586;2022-11-18T02:43:54;96309.13;;;13.92;52.38
30873;BME280;17579;42.690;2.586;2022-11-18T02:46:27;96307.88;;;13.95;52.26
30873;BME280;17579;42.690;2.586;2022-11-18T02:48:54;96309.72;;;13.94;52.13
30873;BME280;17579;42.690;2.586;2022-11-18T02:51:27;96316.63;;;13.89;52.69
30873;BME280;17579;42.690;2.586;2022-11-18T02:53:59;96316.00;;;13.86;52.54
30873;BME280;17579;42.690;2.586;2022-11-18T02:56:27;96321.13;;;13.88;52.40
30873;BME280;17579;42.690;2.586;2022-11-18T02:58:53;96332.78;;;13.87;52.96
30873;BME280;17579;42.690;2.586;2022-11-18T03:01:23;96326.00;;;13.84;52.72
30873;BME280;17579;42.690;2.586;2022-11-18T03:03:50;96339.09;;;13.86;52.68
30873;BME280;17579;42.690;2.586;2022-11-18T03:06:37;96335.16;;;13.82;52.96
30873;BME280;17579;42.690;2.586;2022-11-18T03:09:24;96330.13;;;13.87;52.88
30873;BME280;17579;42.690;2.586;2022-11-18T03:15:00;96322.72;;;13.82;52.71
30873;BME280;17579;42.690;2.586;2022-11-18T03:20:29;96326.03;;;13.69;53.29
30873;BME280;17579;42.690;2.586;2022-11-18T03:23:05;96324.25;;;13.55;53.36
30873;BME280;17579;42.690;2.586;2022-11-18T03:25:42;96313.09;;;13.45;53.37
30873;BME280;17579;42.690;2.586;2022-11-18T03:28:35;96319.03;;;13.32;53.68
30873;BME280;17579;42.690;2.586;2022-11-18T03:31:18;96319.56;;;13.27;53.69
30873;BME280;17579;42.690;2.586;2022-11-18T03:33:49;96317.28;;;13.24;53.80
30873;BME280;17579;42.690;2.586;2022-11-18T03:36:18;96316.66;;;13.22;53.44
30873;BME280;17579;42.690;2.586;2022-11-18T03:38:48;96314.81;;;13.23;53.61
30873;BME280;17579;42.690;2.586;2022-11-18T03:41:16;96320.59;;;13.26;53.33
30873;BME280;17579;42.690;2.586;2022-11-18T03:43:47;96315.47;;;13.25;53.15
30873;BME280;17579;42.690;2.586;2022-11-18T03:46:19;96321.41;;;13.27;53.20
30873;BME280;17579;42.690;2.586;2022-11-18T03:48:50;96320.41;;;13.28;52.96
30873;BME280;17579;42.690;2.586;2022-11-18T03:51:21;96291.22;;;13.28;52.92
30873;BME280;17579;42.690;2.586;2022-11-18T03:53:59;96322.97;;;13.21;53.08
30873;BME280;17579;42.690;2.586;2022-11-18T03:56:30;96318.13;;;13.25;52.52
30873;BME280;17579;42.690;2.586;2022-11-18T03:59:09;96316.00;;;13.20;52.49
30873;BME280;17579;42.690;2.586;2022-11-18T04:01:46;96315.84;;;13.22;52.44
30873;BME280;17579;42.690;2.586;2022-11-18T04:04:14;96311.34;;;13.22;52.52
30873;BME280;17579;42.690;2.586;2022-11-18T04:06:47;96309.59;;;13.14;52.26
30873;BME280;17579;42.690;2.586;2022-11-18T04:09:22;96313.28;;;13.13;52.19
30873;BME280;17579;42.690;2.586;2022-11-18T04:11:53;96314.28;;;13.12;52.29
30873;BME280;17579;42.690;2.586;2022-11-18T04:14:31;96317.75;;;13.13;51.94
30873;BME280;17579;42.690;2.586;2022-11-18T04:16:57;96312.81;;;13.10;52.06
30873;BME280;17579;42.690;2.586;2022-11-18T04:19:23;96318.50;;;13.07;51.86
30873;BME280;17579;42.690;2.586;2022-11-18T04:21:49;96323.81;;;13.07;51.92
30873;BME280;17579;42.690;2.586;2022-11-18T04:24:15;96317.88;;;13.05;51.98
30873;BME280;17579;42.690;2.586;2022-11-18T04:26:42;96328.88;;;13.02;51.81
30873;BME280;17579;42.690;2.586;2022-11-18T04:29:07;96328.56;;;12.96;52.44
30873;BME280;17579;42.690;2.586;2022-11-18T04:31:33;96341.38;;;12.93;52.34
30873;BME280;17579;42.690;2.586;2022-11-18T04:33:58;96342.59;;;12.90;52.17
30873;BME280;17579;42.690;2.586;2022-11-18T04:36:24;96358.41;;;12.83;52.33
30873;BME280;17579;42.690;2.586;2022-11-18T04:38:49;96369.00;;;12.83;52.63
30873;BME280;17579;42.690;2.586;2022-11-18T04:41:15;96385.31;;;12.80;52.32
30873;BME280;17579;42.690;2.586;2022-11-18T04:43:41;96391.59;;;12.79;52.66
30873;BME280;17579;42.690;2.586;2022-11-18T04:46:06;96387.47;;;12.77;52.77
30873;BME280;17579;42.690;2.586;2022-11-18T04:48:32;96379.06;;;12.73;52.85
30873;BME280;17579;42.690;2.586;2022-11-18T04:51:02;96384.91;;;12.69;52.95
30873;BME280;17579;42.690;2.586;2022-11-18T04:53:28;96383.09;;;12.69;52.45
30873;BME280;17579;42.690;2.586;2022-11-18T04:55:54;96365.69;;;12.67;52.44
30873;BME280;17579;42.690;2.586;2022-11-18T04:58:19;96370.91;;;12.60;52.89
30873;BME280;17579;42.690;2.586;2022-11-18T05:00:45;96366.97;;;12.56;52.71
30873;BME280;17579;42.690;2.586;2022-11-18T05:03:10;96377.75;;;12.54;53.04
30873;BME280;17579;42.690;2.586;2022-11-18T05:05:36;96374.81;;;12.49;53.13
30873;BME280;17579;42.690;2.586;2022-11-18T05:08:01;96379.28;;;12.48;53.01
30873;BME280;17579;42.690;2.586;2022-11-18T05:10:27;96383.94;;;12.46;52.97
30873;BME280;17579;42.690;2.586;2022-11-18T05:12:52;96375.69;;;12.41;53.14
30873;BME280;17579;42.690;2.586;2022-11-18T05:15:20;96375.03;;;12.39;52.73
30873;BME280;17579;42.690;2.586;2022-11-18T05:17:48;96375.53;;;12.43;52.97
30873;BME280;17579;42.690;2.586;2022-11-18T05:20:14;96363.81;;;12.37;53.02
30873;BME280;17579;42.690;2.586;2022-11-18T05:22:40;96368.25;;;12.37;53.13
30873;BME280;17579;42.690;2.586;2022-11-18T05:25:06;96360.66;;;12.34;52.79
30873;BME280;17579;42.690;2.586;2022-11-18T05:27:31;96358.19;;;12.32;53.11
30873;BME280;17579;42.690;2.586;2022-11-18T05:29:57;96352.25;;;12.30;52.68
30873;BME280;17579;42.690;2.586;2022-11-18T05:32:23;96347.31;;;12.27;52.68
30873;BME280;17579;42.690;2.586;2022-11-18T05:34:49;96343.47;;;12.29;52.59
30873;BME280;17579;42.690;2.586;2022-11-18T05:37:14;96346.78;;;12.32;52.35
30873;BME280;17579;42.690;2.586;2022-11-18T05:39:40;96349.25;;;12.33;52.39
30873;BME280;17579;42.690;2.586;2022-11-18T05:42:06;96344.75;;;12.34;52.15
30873;BME280;17579;42.690;2.586;2022-11-18T05:44:43;96342.75;;;12.36;51.93
30873;BME280;17579;42.690;2.586;2022-11-18T05:47:09;96350.91;;;12.34;52.33
30873;BME280;17579;42.690;2.586;2022-11-18T05:49:35;96349.44;;;12.32;52.04
30873;BME280;17579;42.690;2.586;2022-11-18T05:52:00;96349.44;;;12.32;52.12
30873;BME280;17579;42.690;2.586;2022-11-18T05:54:26;96345.94;;;12.31;52.21
30873;BME280;17579;42.690;2.586;2022-11-18T05:56:52;96346.09;;;12.29;52.20
30873;BME280;17579;42.690;2.586;2022-11-18T05:59:17;96361.03;;;12.30;52.33
30873;BME280;17579;42.690;2.586;2022-11-18T06:01:55;96352.44;;;12.28;52.47
30873;BME280;17579;42.690;2.586;2022-11-18T06:04:50;96373.47;;;12.30;52.34
30873;BME280;17579;42.690;2.586;2022-11-18T06:07:27;96388.84;;;12.35;52.11
30873;BME280;17579;42.690;2.586;2022-11-18T06:09:58;96394.16;;;12.35;52.54
30873;BME280;17579;42.690;2.586;2022-11-18T06:12:28;96390.84;;;12.33;52.45
30873;BME280;17579;42.690;2.586;2022-11-18T06:14:59;96385.38;;;12.34;52.69
30873;BME280;17579;42.690;2.586;2022-11-18T06:17:39;96389.56;;;12.28;52.85
30873;BME280;17579;42.690;2.586;2022-11-18T06:20:08;96389.38;;;12.30;53.14
30873;BME280;17579;42.690;2.586;2022-11-18T06:22:34;96388.72;;;12.28;53.41
30873;BME280;17579;42.690;2.586;2022-11-18T06:25:00;96378.94;;;12.28;53.49
30873;BME280;17579;42.690;2.586;2022-11-18T06:27:27;96391.53;;;12.26;53.66
30873;BME280;17579;42.690;2.586;2022-11-18T06:29:53;96394.19;;;12.26;53.42
30873;BME280;17579;42.690;2.586;2022-11-18T06:32:18;96402.16;;;12.26;53.54
30873;BME280;17579;42.690;2.586;2022-11-18T06:34:44;96400.16;;;12.28;53.74
30873;BME280;17579;42.690;2.586;2022-11-18T06:37:14;96397.69;;;12.27;53.51
30873;BME280;17579;42.690;2.586;2022-11-18T06:39:40;96400.16;;;12.28;53.43
30873;BME280;17579;42.690;2.586;2022-11-18T06:42:06;96391.38;;;12.28;53.04
30873;BME280;17579;42.690;2.586;2022-11-18T06:44:31;96382.97;;;12.24;52.76
30873;BME280;17579;42.690;2.586;2022-11-18T06:46:57;96388.06;;;12.26;52.69
30873;BME280;17579;42.690;2.586;2022-11-18T06:49:24;96382.78;;;12.26;52.93
30873;BME280;17579;42.690;2.586;2022-11-18T06:51:50;96379.94;;;12.27;52.54
30873;BME280;17579;42.690;2.586;2022-11-18T06:54:16;96380.25;;;12.33;52.50
30873;BME280;17579;42.690;2.586;2022-11-18T06:56:42;96378.69;;;12.38;52.19
30873;BME280;17579;42.690;2.586;2022-11-18T06:59:07;96382.63;;;12.42;52.11
30873;BME280;17579;42.690;2.586;2022-11-18T07:01:35;96385.78;;;12.46;52.08
30873;BME280;17579;42.690;2.586;2022-11-18T07:04:01;96381.75;;;12.50;51.83
30873;BME280;17579;42.690;2.586;2022-11-18T07:06:29;96397.50;;;12.52;52.04
30873;BME280;17579;42.690;2.586;2022-11-18T07:08:55;96402.44;;;12.55;52.04
30873;BME280;17579;42.690;2.586;2022-11-18T07:11:23;96412.06;;;12.56;51.98
30873;BME280;17579;42.690;2.586;2022-11-18T07:13:49;96411.03;;;12.57;51.69
30873;BME280;17579;42.690;2.586;2022-11-18T07:16:20;96400.41;;;12.57;51.69
30873;BME280;17579;42.690;2.586;2022-11-18T07:18:48;96405.72;;;12.57;51.80
30873;BME280;17579;42.690;2.586;2022-11-18T07:21:22;96399.78;;;12.55;51.27
30873;BME280;17579;42.690;2.586;2022-11-18T07:23:48;96415.16;;;12.59;51.01
30873;BME280;17579;42.690;2.586;2022-11-18T07:26:15;96426.44;;;12.61;50.69
30873;BME280;17579;42.690;2.586;2022-11-18T07:28:41;96433.38;;;12.62;50.35
30873;BME280;17579;42.690;2.586;2022-11-18T07:31:15;96444.16;;;12.61;50.82
30873;BME280;17579;42.690;2.586;2022-11-18T07:33:41;96453.06;;;12.68;49.89
30873;BME280;17579;42.690;2.586;2022-11-18T07:36:11;96458.19;;;12.70;49.88
30873;BME280;17579;42.690;2.586;2022-11-18T07:38:39;96462.81;;;12.76;49.33
30873;BME280;17579;42.690;2.586;2022-11-18T07:43:55;96463.25;;;12.79;48.93
30873;BME280;17579;42.690;2.586;2022-11-18T07:46:26;96475.16;;;12.83;49.00
30873;BME280;17579;42.690;2.586;2022-11-18T07:48:54;96470.03;;;12.82;48.76
30873;BME280;17579;42.690;2.586;2022-11-18T07:51:22;96460.25;;;12.82;48.88
30873;BME280;17579;42.690;2.586;2022-11-18T07:53:50;96473.16;;;12.86;48.81
30873;BME280;17579;42.690;2.586;2022-11-18T07:56:17;96472.34;;;12.85;48.86
30873;BME280;17579;42.690;2.586;2022-11-18T07:58:43;96467.38;;;12.82;49.20
30873;BME280;17579;42.690;2.586;2022-11-18T08:01:12;96466.09;;;12.78;49.40
30873;BME280;17579;42.690;2.586;2022-11-18T08:03:38;96472.22;;;12.78;49.51
30873;BME280;17579;42.690;2.586;2022-11-18T08:06:05;96467.44;;;12.74;49.95
30873;BME280;17579;42.690;2.586;2022-11-18T08:08:31;96469.28;;;12.73;50.08
30873;BME280;17579;42.690;2.586;2022-11-18T08:10:59;96456.00;;;12.73;50.35
30873;BME280;17579;42.690;2.586;2022-11-18T08:13:26;96451.34;;;12.75;50.38
30873;BME280;17579;42.690;2.586;2022-11-18T08:15:53;96458.31;;;12.76;50.46
30873;BME280;17579;42.690;2.586;2022-11-18T08:18:20;96456.09;;;12.80;50.36
30873;BME280;17579;42.690;2.586;2022-11-18T08:20:46;96452.47;;;12.81;50.71
30873;BME280;17579;42.690;2.586;2022-11-18T08:23:12;96456.78;;;12.82;50.29
30873;BME280;17579;42.690;2.586;2022-11-18T08:25:40;96465.19;;;12.86;50.56
30873;BME280;17579;42.690;2.586;2022-11-18T08:28:06;96461.34;;;12.88;50.61
30873;BME280;17579;42.690;2.586;2022-11-18T08:30:33;96461.00;;;12.91;50.30
30873;BME280;17579;42.690;2.586;2022-11-18T08:32:59;96469.63;;;12.93;50.26
30873;BME280;17579;42.690;2.586;2022-11-18T08:35:26;96469.44;;;12.95;50.53
30873;BME280;17579;42.690;2.586;2022-11-18T08:37:52;96466.13;;;12.93;50.61
30873;BME280;17579;42.690;2.586;2022-11-18T08:40:18;96467.16;;;12.92;50.62
30873;BME280;17579;42.690;2.586;2022-11-18T08:42:44;96465.31;;;12.92;50.69
30873;BME280;17579;42.690;2.586;2022-11-18T08:45:10;96465.13;;;12.94;50.45
30873;BME280;17579;42.690;2.586;2022-11-18T08:47:36;96474.38;;;12.98;50.26
30873;BME280;17579;42.690;2.586;2022-11-18T08:50:10;96477.66;;;13.00;50.74
30873;BME280;17579;42.690;2.586;2022-11-18T08:52:36;96476.44;;;13.11;50.06
30873;BME280;17579;42.690;2.586;2022-11-18T08:55:01;96472.22;;;13.16;49.74
30873;BME280;17579;42.690;2.586;2022-11-18T08:57:27;96474.16;;;13.23;49.84
30873;BME280;17579;42.690;2.586;2022-11-18T08:59:52;96462.97;;;13.27;49.73
30873;BME280;17579;42.690;2.586;2022-11-18T09:02:20;96448.69;;;13.28;49.54
30873;BME280;17579;42.690;2.586;2022-11-18T09:04:47;96454.50;;;13.32;49.23
30873;BME280;17579;42.690;2.586;2022-11-18T09:07:13;96457.63;;;13.36;49.08
30873;BME280;17579;42.690;2.586;2022-11-18T09:09:39;96448.47;;;13.38;48.87
30873;BME280;17579;42.690;2.586;2022-11-18T09:12:04;96453.78;;;13.38;49.00
30873;BME280;17579;42.690;2.586;2022-11-18T09:14:31;96442.59;;;13.43;48.70
30873;BME280;17579;42.690;2.586;2022-11-18T09:16:56;96453.88;;;13.45;48.82
30873;BME280;17579;42.690;2.586;2022-11-18T09:19:22;96451.84;;;13.47;48.81
30873;BME280;17579;42.690;2.586;2022-11-18T09:21:48;96446.34;;;13.48;48.97
30873;BME280;17579;42.690;2.586;2022-11-18T09:24:14;96444.19;;;13.52;49.06
30873;BME280;17579;42.690;2.586;2022-11-18T09:26:40;96442.81;;;13.56;48.16
30873;BME280;17579;42.690;2.586;2022-11-18T09:29:06;96429.34;;;13.58;48.11
30873;BME280;17579;42.690;2.586;2022-11-18T09:31:32;96435.09;;;13.61;48.00
30873;BME280;17579;42.690;2.586;2022-11-18T09:34:00;96438.75;;;13.60;48.01
30873;BME280;17579;42.690;2.586;2022-11-18T09:36:27;96448.19;;;13.63;48.14
30873;BME280;17579;42.690;2.586;2022-11-18T09:38:53;96463.75;;;13.66;47.94
30873;BME280;17579;42.690;2.586;2022-11-18T09:44:40;96454.16;;;13.65;48.61
30873;BME280;17579;42.690;2.586;2022-11-18T09:47:24;96452.75;;;13.69;48.04
30873;BME280;17579;42.690;2.586;2022-11-18T09:49:50;96461.19;;;13.73;47.58
30873;BME280;17579;42.690;2.586;2022-11-18T09:52:21;96473.69;;;13.72;47.50
30873;BME280;17579;42.690;2.586;2022-11-18T09:54:49;96478.81;;;13.74;47.56
30873;BME280;17579;42.690;2.586;2022-11-18T09:57:20;96476.53;;;13.71;48.08
30873;BME280;17579;42.690;2.586;2022-11-18T09:59:47;96468.00;;;13.75;47.76
30873;BME280;17579;42.690;2.586;2022-11-18T10:04:51;96481.34;;;13.82;47.79
30873;BME280;17579;42.690;2.586;2022-11-18T10:07:23;96481.34;;;13.82;48.12
30873;BME280;17579;42.690;2.586;2022-11-18T10:09:55;96483.47;;;13.86;48.24
30873;BME280;17579;42.690;2.586;2022-11-18T10:12:45;96483.19;;;13.81;48.10
30873;BME280;17579;42.690;2.586;2022-11-18T10:15:31;96498.03;;;13.91;48.36
30873;BME280;17579;42.690;2.586;2022-11-18T10:18:23;96478.31;;;14.00;48.29
30873;BME280;17579;42.690;2.586;2022-11-18T10:21:11;96493.31;;;14.08;48.15
30873;BME280;17579;42.690;2.586;2022-11-18T10:24:03;96495.63;;;14.11;48.46
30873;BME280;17579;42.690;2.586;2022-11-18T10:26:38;96485.06;;;14.17;48.01
30873;BME280;17579;42.690;2.586;2022-11-18T10:29:05;96482.50;;;14.24;47.70
30873;BME280;17579;42.690;2.586;2022-11-18T10:31:36;96479.06;;;14.30;48.38
30873;BME280;17579;42.690;2.586;2022-11-18T10:34:03;96489.78;;;14.37;48.23
30873;BME280;17579;42.690;2.586;2022-11-18T10:36:30;96487.94;;;14.37;47.97
30873;BME280;17579;42.690;2.586;2022-11-18T10:39:13;96467.44;;;14.31;48.05
30873;BME280;17579;42.690;2.586;2022-11-18T10:41:50;96472.09;;;14.29;48.26
30873;BME280;17579;42.690;2.586;2022-11-18T10:44:30;96470.28;;;14.30;48.46
30873;BME280;17579;42.690;2.586;2022-11-18T10:47:27;96452.97;;;14.41;48.50
30873;BME280;17579;42.690;2.586;2022-11-18T10:49:55;96434.38;;;14.62;48.56
30873;BME280;17579;42.690;2.586;2022-11-18T10:52:22;96436.59;;;14.80;48.97
30873;BME280;17579;42.690;2.586;2022-11-18T10:57:46;96434.47;;;15.25;49.08
30873;BME280;17579;42.690;2.586;2022-11-18T11:00:34;96431.19;;;15.23;48.45
30873;BME280;17579;42.690;2.586;2022-11-18T11:03:21;96431.59;;;15.20;47.88
30873;BME280;17579;42.690;2.586;2022-11-18T11:05:47;96423.81;;;15.25;47.92
30873;BME280;17579;42.690;2.586;2022-11-18T11:08:19;96416.00;;;15.17;47.67
30873;BME280;17579;42.690;2.586;2022-11-18T11:10:55;96421.22;;;15.04;47.73
30873;BME280;17579;42.690;2.586;2022-11-18T11:13:26;96425.94;;;15.02;47.52
30873;BME280;17579;42.690;2.586;2022-11-18T11:15:55;96425.66;;;14.97;47.52
30873;BME280;17579;42.690;2.586;2022-11-18T11:18:29;96416.88;;;14.96;47.67
30873;BME280;17579;42.690;2.586;2022-11-18T11:21:17;96416.06;;;14.96;47.72
30873;BME280;17579;42.690;2.586;2022-11-18T11:23:44;96409.94;;;15.02;47.62
30873;BME280;17579;42.690;2.586;2022-11-18T11:26:33;96397.03;;;14.99;47.92
30873;BME280;17579;42.690;2.586;2022-11-18T11:29:30;96397.88;;;15.06;47.94
30873;BME280;17579;42.690;2.586;2022-11-18T11:32:09;96368.94;;;15.31;48.04
30873;BME280;17579;42.690;2.586;2022-11-18T11:34:59;96369.13;;;15.65;48.18
30873;BME280;17579;42.690;2.586;2022-11-18T11:40:29;96402.09;;;16.05;45.55
30873;BME280;17579;42.690;2.586;2022-11-18T11:49:24;96370.44;;;15.47;45.74
30873;BME280;17579;42.690;2.586;2022-11-18T11:51:55;96368.03;;;15.52;45.63
30873;BME280;17579;42.690;2.586;2022-11-18T11:57:20;96372.53;;;15.52;45.81
30873;BME280;17579;42.690;2.586;2022-11-18T12:00:00;96371.09;;;15.49;46.01
30873;BME280;17579;42.690;2.586;2022-11-18T12:05:25;96376.81;;;15.46;45.61
30873;BME280;17579;42.690;2.586;2022-11-18T12:07:57;96380.94;;;15.49;45.56
30873;BME280;17579;42.690;2.586;2022-11-18T12:19:14;96394.28;;;15.55;45.76
30873;BME280;17579;42.690;2.586;2022-11-18T12:21:58;96387.47;;;15.46;45.95
30873;BME280;17579;42.690;2.586;2022-11-18T12:24:40;96385.41;;;15.48;45.99
30873;BME280;17579;42.690;2.586;2022-11-18T12:29:55;96363.50;;;15.46;45.57
30873;BME280;17579;42.690;2.586;2022-11-18T12:32:40;96358.91;;;15.33;46.07
30873;BME280;17579;42.690;2.586;2022-11-18T12:35:26;96369.56;;;15.33;45.83
30873;BME280;17579;42.690;2.586;2022-11-18T12:37:57;96359.34;;;15.37;46.02
30873;BME280;17579;42.690;2.586;2022-11-18T12:46:46;96331.03;;;15.29;45.92
30873;BME280;17579;42.690;2.586;2022-11-18T12:52:45;96292.31;;;15.33;46.26
30873;BME280;17579;42.690;2.586;2022-11-18T12:55:15;96294.56;;;15.36;45.55
30873;BME280;17579;42.690;2.586;2022-11-18T12:57:42;96293.78;;;15.42;45.67
30873;BME280;17579;42.690;2.586;2022-11-18T13:03:21;96309.16;;;15.47;45.80
30873;BME280;17579;42.690;2.586;2022-11-18T13:05:49;96310.03;;;15.54;45.79
30873;BME280;17579;42.690;2.586;2022-11-18T13:08:16;96315.97;;;15.56;45.82
30873;BME280;17579;42.690;2.586;2022-11-18T13:10:50;96320.50;;;15.56;46.20
30873;BME280;17579;42.690;2.586;2022-11-18T13:13:25;96318.66;;;15.63;45.84
30873;BME280;17579;42.690;2.586;2022-11-18T13:15:54;96317.00;;;15.62;45.64
30873;BME280;17579;42.690;2.586;2022-11-18T13:18:46;96314.72;;;15.52;45.63
30873;BME280;17579;42.690;2.586;2022-11-18T13:21:19;96327.03;;;15.60;45.70
30873;BME280;17579;42.690;2.586;2022-11-18T13:24:00;96328.31;;;15.71;45.52
30873;BME280;17579;42.690;2.586;2022-11-18T13:26:29;96323.22;;;15.76;45.33
30873;BME280;17579;42.690;2.586;2022-11-18T13:34:58;96352.06;;;15.59;44.99
30873;BME280;17579;42.690;2.586;2022-11-18T13:37:31;96358.84;;;15.62;45.03
30873;BME280;17579;42.690;2.586;2022-11-18T13:39:58;96353.72;;;15.67;44.83
30873;BME280;17579;42.690;2.586;2022-11-18T13:42:27;96352.31;;;15.71;44.92
30873;BME280;17579;42.690;2.586;2022-11-18T13:45:02;96352.50;;;15.69;44.73
30873;BME280;17579;42.690;2.586;2022-11-18T13:50:38;96344.69;;;15.61;44.84
30873;BME280;17579;42.690;2.586;2022-11-18T13:56:24;96307.31;;;15.96;45.31
30873;BME280;17579;42.690;2.586;2022-11-18T13:58:56;96319.22;;;16.20;44.51
30873;BME280;17579;42.690;2.586;2022-11-18T14:01:30;96330.13;;;16.39;44.84
30873;BME280;17579;42.690;2.586;2022-11-18T14:04:05;96323.34;;;16.56;43.73
30873;BME280;17579;42.690;2.586;2022-11-18T14:06:39;96323.53;;;16.61;43.78
30873;BME280;17579;42.690;2.586;2022-11-18T14:09:26;96313.28;;;16.72;43.63
30873;BME280;17579;42.690;2.586;2022-11-18T14:15:22;96286.13;;;16.95;43.27
30873;BME280;17579;42.690;2.586;2022-11-18T14:17:55;96279.38;;;16.92;42.61
30873;BME280;17579;42.690;2.586;2022-11-18T14:20:23;96278.75;;;16.97;42.67
30873;BME280;17579;42.690;2.586;2022-11-18T14:22:53;96263.75;;;17.03;42.31
30873;BME280;17579;42.690;2.586;2022-11-18T14:25:31;96285.31;;;17.01;42.20
30873;BME280;17579;42.690;2.586;2022-11-18T14:28:20;96304.41;;;17.05;41.69
30873;BME280;17579;42.690;2.586;2022-11-18T14:31:20;96286.78;;;16.97;41.98
30873;BME280;17579;42.690;2.586;2022-11-18T14:36:35;96298.69;;;16.74;41.38
30873;BME280;17579;42.690;2.586;2022-11-18T14:39:11;96292.75;;;16.72;42.00